sensor_id;sensor_type;location;lat;lon;timestamp;pressure;altitude;pressure_sealevel;temperature;humidity
37206;BME280;23099;42.636;23.198;2023-07-16T00:01:04;92320.03;;;21.12;100.00
37206;BME280;23099;42.636;23.198;2023-07-16T00:03:32;92317.22;;;21.20;100.00
37206;BME280;23099;42.636;23.198;2023-07-16T00:05:59;92318.28;;;21.22;100.00
37206;BME280;23099;42.636;23.198;2023-07-16T00:08:25;92324.19;;;21.21;100.00
37206;BME280;23099;42.636;23.198;2023-07-16T00:10:52;92309.81;;;21.20;100.00
37206;BME280;23099;42.636;23.198;2023-07-16T00:13:19;92307.00;;;21.24;100.00
37206;BME280;23099;42.636;23.198;2023-07-16T00:15:45;92311.25;;;21.25;100.00
37206;BME280;23099;42.636;23.198;2023-07-16T00:18:12;92305.06;;;21.24;100.00
37206;BME280;23099;42.636;23.198;2023-07-16T00:20:40;92306.38;;;21.16;100.00
37206;BME280;23099;42.636;23.198;2023-07-16T00:23:07;92310.69;;;21.13;100.00
37206;BME280;23099;42.636;23.198;2023-07-16T00:25:33;92308.44;;;21.08;100.00
37206;BME280;23099;42.636;23.198;2023-07-16T00:28:01;92305.38;;;21.06;100.00
37206;BME280;23099;42.636;23.198;2023-07-16T00:30:28;92314.28;;;21.07;100.00
37206;BME280;23099;42.636;23.198;2023-07-16T00:32:54;92303.56;;;21.00;100.00
37206;BME280;23099;42.636;23.198;2023-07-16T00:35:21;92315.84;;;20.88;100.00
37206;BME280;23099;42.636;23.198;2023-07-16T00:37:49;92304.25;;;20.84;100.00
37206;BME280;23099;42.636;23.198;2023-07-16T00:40:17;92311.84;;;20.73;100.00
37206;BME280;23099;42.636;23.198;2023-07-16T00:42:43;92309.84;;;20.77;100.00
37206;BME280;23099;42.636;23.198;2023-07-16T00:45:12;92307.38;;;20.63;100.00
37206;BME280;23099;42.636;23.198;2023-07-16T00:47:40;92305.75;;;20.65;100.00
37206;BME280;23099;42.636;23.198;2023-07-16T00:50:08;92317.28;;;20.73;100.00
37206;BME280;23099;42.636;23.198;2023-07-16T00:52:35;92313.75;;;20.76;100.00
37206;BME280;23099;42.636;23.198;2023-07-16T00:55:04;92305.22;;;20.74;100.00
37206;BME280;23099;42.636;23.198;2023-07-16T00:57:32;92298.75;;;20.68;100.00
37206;BME280;23099;42.636;23.198;2023-07-16T00:59:59;92303.41;;;20.67;100.00
37206;BME280;23099;42.636;23.198;2023-07-16T01:02:26;92299.09;;;20.70;100.00
37206;BME280;23099;42.636;23.198;2023-07-16T01:04:53;92299.66;;;20.61;100.00
37206;BME280;23099;42.636;23.198;2023-07-16T01:07:20;92292.94;;;20.66;100.00
37206;BME280;23099;42.636;23.198;2023-07-16T01:09:49;92289.06;;;20.67;100.00
37206;BME280;23099;42.636;23.198;2023-07-16T01:12:19;92298.28;;;20.73;100.00
37206;BME280;23099;42.636;23.198;2023-07-16T01:14:47;92301.44;;;20.68;100.00
37206;BME280;23099;42.636;23.198;2023-07-16T01:17:14;92301.03;;;20.69;100.00
37206;BME280;23099;42.636;23.198;2023-07-16T01:19:41;92295.19;;;20.71;100.00
37206;BME280;23099;42.636;23.198;2023-07-16T01:22:22;92292.59;;;20.64;100.00
37206;BME280;23099;42.636;23.198;2023-07-16T01:25:01;92290.22;;;20.66;100.00
37206;BME280;23099;42.636;23.198;2023-07-16T01:27:52;92291.78;;;20.67;100.00
37206;BME280;23099;42.636;23.198;2023-07-16T01:30:26;92297.19;;;20.67;100.00
37206;BME280;23099;42.636;23.198;2023-07-16T01:32:55;92289.47;;;20.65;100.00
37206;BME280;23099;42.636;23.198;2023-07-16T01:35:21;92291.09;;;20.63;100.00
37206;BME280;23099;42.636;23.198;2023-07-16T01:37:48;92289.63;;;20.58;100.00
37206;BME280;23099;42.636;23.198;2023-07-16T01:40:15;92291.81;;;20.63;100.00
37206;BME280;23099;42.636;23.198;2023-07-16T01:42:42;92288.28;;;20.66;100.00
37206;BME280;23099;42.636;23.198;2023-07-16T01:45:09;92291.09;;;20.63;100.00
37206;BME280;23099;42.636;23.198;2023-07-16T01:47:40;92297.00;;;20.58;100.00
37206;BME280;23099;42.636;23.198;2023-07-16T01:50:10;92296.06;;;20.44;100.00
37206;BME280;23099;42.636;23.198;2023-07-16T01:52:37;92299.19;;;20.43;100.00
37206;BME280;23099;42.636;23.198;2023-07-16T01:55:04;92301.97;;;20.39;100.00
37206;BME280;23099;42.636;23.198;2023-07-16T01:57:31;92294.94;;;20.42;100.00
37206;BME280;23099;42.636;23.198;2023-07-16T01:59:58;92299.13;;;20.46;100.00
37206;BME280;23099;42.636;23.198;2023-07-16T02:02:24;92301.50;;;20.44;100.00
37206;BME280;23099;42.636;23.198;2023-07-16T02:04:52;92292.75;;;20.33;100.00
37206;BME280;23099;42.636;23.198;2023-07-16T02:07:19;92297.72;;;20.35;100.00
37206;BME280;23099;42.636;23.198;2023-07-16T02:09:46;92301.59;;;20.37;100.00
37206;BME280;23099;42.636;23.198;2023-07-16T02:12:12;92300.00;;;20.40;100.00
37206;BME280;23099;42.636;23.198;2023-07-16T02:14:39;92293.34;;;20.44;100.00
37206;BME280;23099;42.636;23.198;2023-07-16T02:17:06;92300.59;;;20.51;100.00
37206;BME280;23099;42.636;23.198;2023-07-16T02:19:32;92297.47;;;20.53;100.00
37206;BME280;23099;42.636;23.198;2023-07-16T02:22:01;92292.63;;;20.40;100.00
37206;BME280;23099;42.636;23.198;2023-07-16T02:24:27;92293.41;;;20.41;100.00
37206;BME280;23099;42.636;23.198;2023-07-16T02:26:54;92295.28;;;20.44;100.00
37206;BME280;23099;42.636;23.198;2023-07-16T02:29:21;92289.91;;;20.40;100.00
37206;BME280;23099;42.636;23.198;2023-07-16T02:31:47;92294.31;;;20.31;100.00
37206;BME280;23099;42.636;23.198;2023-07-16T02:34:14;92300.81;;;20.13;100.00
37206;BME280;23099;42.636;23.198;2023-07-16T02:36:41;92302.75;;;20.13;100.00
37206;BME280;23099;42.636;23.198;2023-07-16T02:39:09;92300.75;;;20.17;100.00
37206;BME280;23099;42.636;23.198;2023-07-16T02:41:36;92305.81;;;20.15;100.00
37206;BME280;23099;42.636;23.198;2023-07-16T02:44:05;92306.78;;;20.05;100.00
37206;BME280;23099;42.636;23.198;2023-07-16T02:46:32;92301.81;;;20.00;100.00
37206;BME280;23099;42.636;23.198;2023-07-16T02:48:58;92306.78;;;20.05;100.00
37206;BME280;23099;42.636;23.198;2023-07-16T02:51:25;92307.06;;;20.10;100.00
37206;BME280;23099;42.636;23.198;2023-07-16T02:53:52;92302.75;;;20.13;100.00
37206;BME280;23099;42.636;23.198;2023-07-16T02:56:20;92306.69;;;20.08;100.00
37206;BME280;23099;42.636;23.198;2023-07-16T02:58:47;92308.28;;;20.06;100.00
37206;BME280;23099;42.636;23.198;2023-07-16T03:01:13;92299.72;;;20.07;100.00
37206;BME280;23099;42.636;23.198;2023-07-16T03:03:40;92304.81;;;20.05;100.00
37206;BME280;23099;42.636;23.198;2023-07-16T03:06:07;92308.22;;;20.09;100.00
37206;BME280;23099;42.636;23.198;2023-07-16T03:08:33;92310.94;;;20.09;100.00
37206;BME280;23099;42.636;23.198;2023-07-16T03:11:00;92295.75;;;20.16;100.00
37206;BME280;23099;42.636;23.198;2023-07-16T03:13:28;92296.78;;;20.22;100.00
37206;BME280;23099;42.636;23.198;2023-07-16T03:15:55;92304.94;;;20.22;100.00
37206;BME280;23099;42.636;23.198;2023-07-16T03:18:22;92306.06;;;20.24;100.00
37206;BME280;23099;42.636;23.198;2023-07-16T03:20:48;92305.69;;;20.22;100.00
37206;BME280;23099;42.636;23.198;2023-07-16T03:23:15;92305.28;;;20.24;100.00
37206;BME280;23099;42.636;23.198;2023-07-16T03:25:41;92306.41;;;20.26;100.00
37206;BME280;23099;42.636;23.198;2023-07-16T03:28:08;92303.28;;;20.28;100.00
37206;BME280;23099;42.636;23.198;2023-07-16T03:30:36;92306.38;;;20.30;100.00
37206;BME280;23099;42.636;23.198;2023-07-16T03:33:04;92304.78;;;20.32;100.00
37206;BME280;23099;42.636;23.198;2023-07-16T03:35:31;92310.22;;;20.32;100.00
37206;BME280;23099;42.636;23.198;2023-07-16T03:37:57;92314.88;;;20.32;100.00
37206;BME280;23099;42.636;23.198;2023-07-16T03:40:25;92313.78;;;20.26;100.00
37206;BME280;23099;42.636;23.198;2023-07-16T03:42:52;92314.25;;;20.21;100.00
37206;BME280;23099;42.636;23.198;2023-07-16T03:45:19;92314.91;;;20.05;100.00
37206;BME280;23099;42.636;23.198;2023-07-16T03:47:47;92319.22;;;20.02;100.00
37206;BME280;23099;42.636;23.198;2023-07-16T03:50:14;92317.31;;;19.99;100.00
37206;BME280;23099;42.636;23.198;2023-07-16T03:52:40;92323.88;;;20.02;100.00
37206;BME280;23099;42.636;23.198;2023-07-16T03:55:08;92315.31;;;20.03;100.00
37206;BME280;23099;42.636;23.198;2023-07-16T03:57:34;92312.19;;;20.05;100.00
37206;BME280;23099;42.636;23.198;2023-07-16T04:00:01;92319.50;;;20.08;100.00
37206;BME280;23099;42.636;23.198;2023-07-16T04:02:29;92333.19;;;20.01;100.00
37206;BME280;23099;42.636;23.198;2023-07-16T04:04:57;92326.59;;;20.02;100.00
37206;BME280;23099;42.636;23.198;2023-07-16T04:07:24;92330.47;;;20.01;100.00
37206;BME280;23099;42.636;23.198;2023-07-16T04:09:51;92330.47;;;20.01;100.00
37206;BME280;23099;42.636;23.198;2023-07-16T04:12:18;92329.56;;;20.07;100.00
37206;BME280;23099;42.636;23.198;2023-07-16T04:14:45;92330.25;;;20.15;100.00
37206;BME280;23099;42.636;23.198;2023-07-16T04:17:12;92328.59;;;20.21;100.00
37206;BME280;23099;42.636;23.198;2023-07-16T04:19:39;92331.19;;;20.28;100.00
37206;BME280;23099;42.636;23.198;2023-07-16T04:22:07;92328.50;;;20.28;100.00
37206;BME280;23099;42.636;23.198;2023-07-16T04:24:34;92327.25;;;20.33;100.00
37206;BME280;23099;42.636;23.198;2023-07-16T04:27:01;92330.69;;;20.37;100.00
37206;BME280;23099;42.636;23.198;2023-07-16T04:29:27;92320.59;;;20.37;100.00
37206;BME280;23099;42.636;23.198;2023-07-16T04:31:54;92323.94;;;20.49;100.00
37206;BME280;23099;42.636;23.198;2023-07-16T04:34:21;92332.47;;;20.47;100.00
37206;BME280;23099;42.636;23.198;2023-07-16T04:36:47;92330.41;;;20.55;100.00
37206;BME280;23099;42.636;23.198;2023-07-16T04:39:15;92330.69;;;20.60;100.00
37206;BME280;23099;42.636;23.198;2023-07-16T04:41:42;92333.28;;;20.67;100.00
37206;BME280;23099;42.636;23.198;2023-07-16T04:44:09;92340.13;;;20.75;100.00
37206;BME280;23099;42.636;23.198;2023-07-16T04:46:35;92340.75;;;20.83;100.00
37206;BME280;23099;42.636;23.198;2023-07-16T04:49:02;92339.94;;;20.86;100.00
37206;BME280;23099;42.636;23.198;2023-07-16T04:51:29;92342.25;;;20.88;100.00
37206;BME280;23099;42.636;23.198;2023-07-16T04:53:56;92331.44;;;20.84;100.00
37206;BME280;23099;42.636;23.198;2023-07-16T04:56:24;92344.34;;;21.00;100.00
37206;BME280;23099;42.636;23.198;2023-07-16T04:58:50;92347.75;;;21.04;100.00
37206;BME280;23099;42.636;23.198;2023-07-16T05:01:17;92348.84;;;21.06;100.00
37206;BME280;23099;42.636;23.198;2023-07-16T05:03:45;92350.41;;;21.07;100.00
37206;BME280;23099;42.636;23.198;2023-07-16T05:06:12;92346.44;;;21.12;100.00
37206;BME280;23099;42.636;23.198;2023-07-16T05:08:39;92349.84;;;21.16;100.00
37206;BME280;23099;42.636;23.198;2023-07-16T05:11:05;92350.22;;;21.18;100.00
37206;BME280;23099;42.636;23.198;2023-07-16T05:13:33;92346.19;;;21.26;100.00
37206;BME280;23099;42.636;23.198;2023-07-16T05:16:00;92346.88;;;21.30;100.00
37206;BME280;23099;42.636;23.198;2023-07-16T05:18:27;92342.16;;;21.34;100.00
37206;BME280;23099;42.636;23.198;2023-07-16T05:20:54;92348.22;;;21.42;100.00
37206;BME280;23099;42.636;23.198;2023-07-16T05:23:20;92348.13;;;21.45;100.00
37206;BME280;23099;42.636;23.198;2023-07-16T05:25:48;92346.97;;;21.46;100.00
37206;BME280;23099;42.636;23.198;2023-07-16T05:28:15;92351.41;;;21.57;100.00
37206;BME280;23099;42.636;23.198;2023-07-16T05:30:44;92357.59;;;21.57;100.00
37206;BME280;23099;42.636;23.198;2023-07-16T05:33:11;92347.09;;;21.59;100.00
37206;BME280;23099;42.636;23.198;2023-07-16T05:35:38;92354.41;;;21.62;100.00
37206;BME280;23099;42.636;23.198;2023-07-16T05:38:05;92347.34;;;21.65;100.00
37206;BME280;23099;42.636;23.198;2023-07-16T05:40:32;92356.53;;;21.71;100.00
37206;BME280;23099;42.636;23.198;2023-07-16T05:42:59;92349.44;;;21.77;100.00
37206;BME280;23099;42.636;23.198;2023-07-16T05:45:26;92364.28;;;21.72;100.00
37206;BME280;23099;42.636;23.198;2023-07-16T05:47:54;92353.25;;;21.79;100.00
37206;BME280;23099;42.636;23.198;2023-07-16T05:50:20;92366.28;;;21.88;100.00
37206;BME280;23099;42.636;23.198;2023-07-16T05:52:47;92367.41;;;21.91;100.00
37206;BME280;23099;42.636;23.198;2023-07-16T05:55:14;92366.53;;;21.94;100.00
37206;BME280;23099;42.636;23.198;2023-07-16T05:57:41;92372.03;;;22.10;100.00
37206;BME280;23099;42.636;23.198;2023-07-16T06:00:08;92378.94;;;22.14;100.00
37206;BME280;23099;42.636;23.198;2023-07-16T06:02:35;92378.88;;;22.18;100.00
37206;BME280;23099;42.636;23.198;2023-07-16T06:05:04;92379.63;;;22.18;100.00
37206;BME280;23099;42.636;23.198;2023-07-16T06:07:31;92379.88;;;22.24;100.00
37206;BME280;23099;42.636;23.198;2023-07-16T06:09:58;92378.97;;;22.31;100.00
37206;BME280;23099;42.636;23.198;2023-07-16T06:12:25;92370.72;;;22.34;100.00
37206;BME280;23099;42.636;23.198;2023-07-16T06:14:51;92382.63;;;22.40;100.00
37206;BME280;23099;42.636;23.198;2023-07-16T06:17:18;92382.56;;;22.44;100.00
37206;BME280;23099;42.636;23.198;2023-07-16T06:19:45;92372.41;;;22.44;100.00
37206;BME280;23099;42.636;23.198;2023-07-16T06:22:15;92387.31;;;22.56;100.00
37206;BME280;23099;42.636;23.198;2023-07-16T06:24:41;92383.75;;;22.59;100.00
37206;BME280;23099;42.636;23.198;2023-07-16T06:27:08;92387.22;;;22.60;100.00
37206;BME280;23099;42.636;23.198;2023-07-16T06:29:34;92382.22;;;22.58;100.00
37206;BME280;23099;42.636;23.198;2023-07-16T06:32:01;92378.97;;;22.63;100.00
37206;BME280;23099;42.636;23.198;2023-07-16T06:34:28;92383.56;;;22.66;98.35
37206;BME280;23099;42.636;23.198;2023-07-16T06:36:55;92380.75;;;22.70;99.17
37206;BME280;23099;42.636;23.198;2023-07-16T06:39:23;92371.03;;;22.69;98.57
37206;BME280;23099;42.636;23.198;2023-07-16T06:41:49;92372.06;;;22.75;99.14
37206;BME280;23099;42.636;23.198;2023-07-16T06:44:16;92377.13;;;22.76;98.05
37206;BME280;23099;42.636;23.198;2023-07-16T06:46:43;92380.25;;;22.75;98.15
37206;BME280;23099;42.636;23.198;2023-07-16T06:49:09;92377.47;;;22.78;97.72
37206;BME280;23099;42.636;23.198;2023-07-16T06:51:36;92372.69;;;22.82;97.25
37206;BME280;23099;42.636;23.198;2023-07-16T06:54:03;92370.63;;;22.86;98.03
37206;BME280;23099;42.636;23.198;2023-07-16T06:56:31;92373.34;;;22.86;96.95
37206;BME280;23099;42.636;23.198;2023-07-16T06:58:57;92380.34;;;22.87;96.83
37206;BME280;23099;42.636;23.198;2023-07-16T07:01:24;92381.03;;;22.91;96.32
37206;BME280;23099;42.636;23.198;2023-07-16T07:03:53;92382.88;;;22.95;96.13
37206;BME280;23099;42.636;23.198;2023-07-16T07:06:19;92371.47;;;23.00;96.56
37206;BME280;23099;42.636;23.198;2023-07-16T07:08:46;92380.56;;;23.09;96.67
37206;BME280;23099;42.636;23.198;2023-07-16T07:11:13;92379.59;;;23.16;96.16
37206;BME280;23099;42.636;23.198;2023-07-16T07:13:41;92378.66;;;23.22;96.62
37206;BME280;23099;42.636;23.198;2023-07-16T07:16:08;92380.25;;;23.36;96.18
37206;BME280;23099;42.636;23.198;2023-07-16T07:18:35;92379.69;;;23.41;95.78
37206;BME280;23099;42.636;23.198;2023-07-16T07:21:02;92386.88;;;23.51;95.25
37206;BME280;23099;42.636;23.198;2023-07-16T07:23:28;92380.00;;;23.59;96.04
37206;BME280;23099;42.636;23.198;2023-07-16T07:25:55;92381.25;;;23.71;95.39
37206;BME280;23099;42.636;23.198;2023-07-16T07:28:22;92380.28;;;23.78;94.61
37206;BME280;23099;42.636;23.198;2023-07-16T07:30:50;92375.28;;;23.89;94.59
37206;BME280;23099;42.636;23.198;2023-07-16T07:33:16;92383.91;;;24.00;94.71
37206;BME280;23099;42.636;23.198;2023-07-16T07:35:43;92377.16;;;24.05;94.23
37206;BME280;23099;42.636;23.198;2023-07-16T07:38:10;92379.88;;;24.17;93.98
37206;BME280;23099;42.636;23.198;2023-07-16T07:40:36;92376.41;;;24.29;93.76
37206;BME280;23099;42.636;23.198;2023-07-16T07:43:03;92378.50;;;24.38;91.86
37206;BME280;23099;42.636;23.198;2023-07-16T07:45:30;92384.84;;;24.48;91.47
37206;BME280;23099;42.636;23.198;2023-07-16T07:47:58;92377.59;;;24.54;92.83
37206;BME280;23099;42.636;23.198;2023-07-16T07:50:24;92385.34;;;24.68;91.83
37206;BME280;23099;42.636;23.198;2023-07-16T07:52:51;92378.91;;;24.75;91.72
37206;BME280;23099;42.636;23.198;2023-07-16T07:55:18;92382.28;;;24.79;90.93
37206;BME280;23099;42.636;23.198;2023-07-16T07:57:44;92382.81;;;24.86;90.10
37206;BME280;23099;42.636;23.198;2023-07-16T08:00:12;92386.88;;;24.94;90.10
37206;BME280;23099;42.636;23.198;2023-07-16T08:02:40;92386.97;;;25.04;89.60
37206;BME280;23099;42.636;23.198;2023-07-16T08:05:08;92379.25;;;25.11;89.47
37206;BME280;23099;42.636;23.198;2023-07-16T08:07:35;92388.00;;;25.19;88.60
37206;BME280;23099;42.636;23.198;2023-07-16T08:10:02;92373.31;;;25.25;89.09
37206;BME280;23099;42.636;23.198;2023-07-16T08:12:28;92379.53;;;25.39;89.25
37206;BME280;23099;42.636;23.198;2023-07-16T08:14:56;92375.63;;;25.49;88.45
37206;BME280;23099;42.636;23.198;2023-07-16T08:17:23;92388.94;;;25.59;88.43
37206;BME280;23099;42.636;23.198;2023-07-16T08:19:49;92380.72;;;25.59;87.13
37206;BME280;23099;42.636;23.198;2023-07-16T08:22:17;92378.53;;;25.67;88.28
37206;BME280;23099;42.636;23.198;2023-07-16T08:24:44;92384.06;;;25.76;87.86
37206;BME280;23099;42.636;23.198;2023-07-16T08:27:10;92390.63;;;25.79;87.90
37206;BME280;23099;42.636;23.198;2023-07-16T08:29:37;92385.59;;;25.77;86.57
37206;BME280;23099;42.636;23.198;2023-07-16T08:32:04;92386.84;;;25.85;86.12
37206;BME280;23099;42.636;23.198;2023-07-16T08:34:31;92386.47;;;25.96;85.97
37206;BME280;23099;42.636;23.198;2023-07-16T08:36:58;92380.53;;;25.97;86.02
37206;BME280;23099;42.636;23.198;2023-07-16T08:39:26;92388.81;;;26.06;86.08
37206;BME280;23099;42.636;23.198;2023-07-16T08:41:52;92381.84;;;26.15;86.78
37206;BME280;23099;42.636;23.198;2023-07-16T08:44:20;92382.28;;;26.13;84.17
37206;BME280;23099;42.636;23.198;2023-07-16T08:46:46;92386.44;;;26.18;83.87
37206;BME280;23099;42.636;23.198;2023-07-16T08:49:13;92384.22;;;26.25;84.53
37206;BME280;23099;42.636;23.198;2023-07-16T08:51:44;92384.41;;;26.31;83.46
37206;BME280;23099;42.636;23.198;2023-07-16T08:54:12;92387.44;;;26.33;82.17
37206;BME280;23099;42.636;23.198;2023-07-16T08:56:42;92380.47;;;26.41;81.94
37206;BME280;23099;42.636;23.198;2023-07-16T08:59:10;92386.91;;;26.47;82.02
37206;BME280;23099;42.636;23.198;2023-07-16T09:01:37;92381.44;;;26.56;84.05
37206;BME280;23099;42.636;23.198;2023-07-16T09:04:04;92377.91;;;26.47;81.82
37206;BME280;23099;42.636;23.198;2023-07-16T09:06:30;92384.81;;;26.60;83.08
37206;BME280;23099;42.636;23.198;2023-07-16T09:08:57;92379.97;;;26.64;82.07
37206;BME280;23099;42.636;23.198;2023-07-16T09:11:24;92368.69;;;26.71;81.97
37206;BME280;23099;42.636;23.198;2023-07-16T09:13:52;92375.44;;;26.80;82.61
37206;BME280;23099;42.636;23.198;2023-07-16T09:16:20;92372.06;;;26.85;81.05
37206;BME280;23099;42.636;23.198;2023-07-16T09:18:47;92369.41;;;26.94;81.53
37206;BME280;23099;42.636;23.198;2023-07-16T09:21:14;92369.41;;;27.03;82.63
37206;BME280;23099;42.636;23.198;2023-07-16T09:23:42;92370.94;;;27.04;80.27
37206;BME280;23099;42.636;23.198;2023-07-16T09:26:09;92375.81;;;27.09;79.82
37206;BME280;23099;42.636;23.198;2023-07-16T09:28:36;92375.69;;;27.22;79.88
37206;BME280;23099;42.636;23.198;2023-07-16T09:31:07;92376.44;;;27.22;78.71
37206;BME280;23099;42.636;23.198;2023-07-16T09:33:34;92376.91;;;27.30;78.91
37206;BME280;23099;42.636;23.198;2023-07-16T09:36:03;92371.72;;;27.32;77.08
37206;BME280;23099;42.636;23.198;2023-07-16T09:38:30;92374.19;;;27.39;76.96
37206;BME280;23099;42.636;23.198;2023-07-16T09:40:57;92374.00;;;27.42;77.16
37206;BME280;23099;42.636;23.198;2023-07-16T09:43:24;92375.25;;;27.51;76.33
37206;BME280;23099;42.636;23.198;2023-07-16T09:45:51;92371.84;;;27.56;75.41
37206;BME280;23099;42.636;23.198;2023-07-16T09:48:19;92374.19;;;27.66;76.28
37206;BME280;23099;42.636;23.198;2023-07-16T09:50:50;92368.69;;;27.75;73.58
37206;BME280;23099;42.636;23.198;2023-07-16T09:53:19;92365.63;;;27.83;74.69
37206;BME280;23099;42.636;23.198;2023-07-16T09:55:46;92368.50;;;27.88;76.61
37206;BME280;23099;42.636;23.198;2023-07-16T09:58:17;92366.53;;;27.98;72.42
37206;BME280;23099;42.636;23.198;2023-07-16T10:00:45;92365.88;;;28.03;73.32
37206;BME280;23099;42.636;23.198;2023-07-16T10:03:12;92375.00;;;28.18;71.62
37206;BME280;23099;42.636;23.198;2023-07-16T10:05:42;92364.16;;;28.33;69.57
37206;BME280;23099;42.636;23.198;2023-07-16T10:08:16;92361.94;;;28.46;72.22
37206;BME280;23099;42.636;23.198;2023-07-16T10:10:44;92356.25;;;28.59;71.37
37206;BME280;23099;42.636;23.198;2023-07-16T10:13:12;92361.88;;;28.64;69.67
37206;BME280;23099;42.636;23.198;2023-07-16T10:15:49;92357.69;;;28.78;69.75
37206;BME280;23099;42.636;23.198;2023-07-16T10:18:23;92360.31;;;28.81;68.20
37206;BME280;23099;42.636;23.198;2023-07-16T10:20:51;92359.78;;;28.92;69.74
37206;BME280;23099;42.636;23.198;2023-07-16T10:23:18;92351.28;;;29.05;67.98
37206;BME280;23099;42.636;23.198;2023-07-16T10:25:58;92361.75;;;29.15;68.04
37206;BME280;23099;42.636;23.198;2023-07-16T10:28:25;92354.59;;;29.33;64.82
37206;BME280;23099;42.636;23.198;2023-07-16T10:30:52;92356.09;;;29.43;63.76
37206;BME280;23099;42.636;23.198;2023-07-16T10:33:18;92348.59;;;29.58;65.44
37206;BME280;23099;42.636;23.198;2023-07-16T10:35:45;92352.81;;;29.68;66.45
37206;BME280;23099;42.636;23.198;2023-07-16T10:38:14;92356.06;;;29.81;61.99
37206;BME280;23099;42.636;23.198;2023-07-16T10:40:41;92352.94;;;29.88;65.09
37206;BME280;23099;42.636;23.198;2023-07-16T10:43:08;92353.06;;;30.09;65.29
37206;BME280;23099;42.636;23.198;2023-07-16T10:45:34;92353.34;;;30.26;61.21
37206;BME280;23099;42.636;23.198;2023-07-16T10:48:01;92349.53;;;30.38;58.38
37206;BME280;23099;42.636;23.198;2023-07-16T10:50:28;92352.16;;;30.47;58.42
37206;BME280;23099;42.636;23.198;2023-07-16T10:52:56;92349.22;;;30.65;57.78
37206;BME280;23099;42.636;23.198;2023-07-16T10:55:26;92341.97;;;30.82;57.35
37206;BME280;23099;42.636;23.198;2023-07-16T10:57:54;92345.50;;;31.03;54.64
37206;BME280;23099;42.636;23.198;2023-07-16T11:00:22;92344.94;;;31.14;56.43
37206;BME280;23099;42.636;23.198;2023-07-16T11:02:49;92344.72;;;31.38;56.70
37206;BME280;23099;42.636;23.198;2023-07-16T11:05:16;92343.78;;;31.46;56.66
37206;BME280;23099;42.636;23.198;2023-07-16T11:07:44;92334.94;;;31.62;56.50
37206;BME280;23099;42.636;23.198;2023-07-16T11:10:11;92343.22;;;31.83;53.48
37206;BME280;23099;42.636;23.198;2023-07-16T11:12:39;92336.94;;;32.08;55.59
37206;BME280;23099;42.636;23.198;2023-07-16T11:15:07;92339.94;;;32.30;54.48
37206;BME280;23099;42.636;23.198;2023-07-16T11:17:34;92331.75;;;32.47;53.47
37206;BME280;23099;42.636;23.198;2023-07-16T11:20:00;92341.47;;;32.68;51.82
37206;BME280;23099;42.636;23.198;2023-07-16T11:22:28;92334.03;;;32.80;48.06
37206;BME280;23099;42.636;23.198;2023-07-16T11:24:55;92335.59;;;32.87;49.43
37206;BME280;23099;42.636;23.198;2023-07-16T11:27:23;92334.84;;;32.92;48.21
37206;BME280;23099;42.636;23.198;2023-07-16T11:29:52;92328.59;;;32.97;49.20
37206;BME280;23099;42.636;23.198;2023-07-16T11:32:27;92326.16;;;33.10;50.71
37206;BME280;23099;42.636;23.198;2023-07-16T11:34:55;92327.19;;;33.13;46.87
37206;BME280;23099;42.636;23.198;2023-07-16T11:37:23;92326.97;;;33.22;47.92
37206;BME280;23099;42.636;23.198;2023-07-16T11:39:51;92322.28;;;33.39;45.68
37206;BME280;23099;42.636;23.198;2023-07-16T11:42:23;92322.81;;;33.43;45.45
37206;BME280;23099;42.636;23.198;2023-07-16T11:44:51;92327.84;;;33.45;42.70
37206;BME280;23099;42.636;23.198;2023-07-16T11:47:20;92324.34;;;33.55;49.86
37206;BME280;23099;42.636;23.198;2023-07-16T11:49:47;92328.66;;;33.56;47.05
37206;BME280;23099;42.636;23.198;2023-07-16T11:52:14;92326.44;;;33.77;45.50
37206;BME280;23099;42.636;23.198;2023-07-16T11:54:40;92331.47;;;33.73;44.86
37206;BME280;23099;42.636;23.198;2023-07-16T11:57:07;92323.97;;;33.85;41.50
37206;BME280;23099;42.636;23.198;2023-07-16T11:59:34;92319.44;;;33.93;41.24
37206;BME280;23099;42.636;23.198;2023-07-16T12:02:02;92323.19;;;33.79;40.28
37206;BME280;23099;42.636;23.198;2023-07-16T12:04:29;92318.38;;;33.74;42.97
37206;BME280;23099;42.636;23.198;2023-07-16T12:06:55;92314.66;;;33.88;42.15
37206;BME280;23099;42.636;23.198;2023-07-16T12:09:22;92309.34;;;33.95;43.08
37206;BME280;23099;42.636;23.198;2023-07-16T12:11:49;92308.34;;;33.98;43.53
37206;BME280;23099;42.636;23.198;2023-07-16T12:14:16;92312.13;;;34.06;43.52
37206;BME280;23099;42.636;23.198;2023-07-16T12:16:42;92314.16;;;33.89;41.24
37206;BME280;23099;42.636;23.198;2023-07-16T12:19:10;92310.84;;;33.91;42.29
37206;BME280;23099;42.636;23.198;2023-07-16T12:21:37;92299.03;;;33.96;41.84
37206;BME280;23099;42.636;23.198;2023-07-16T12:24:05;92303.81;;;33.90;41.76
37206;BME280;23099;42.636;23.198;2023-07-16T12:26:32;92300.53;;;33.91;40.68
37206;BME280;23099;42.636;23.198;2023-07-16T12:28:59;92298.97;;;33.74;39.64
37206;BME280;23099;42.636;23.198;2023-07-16T12:31:28;92296.41;;;33.59;41.01
37206;BME280;23099;42.636;23.198;2023-07-16T12:33:54;92300.16;;;33.50;42.30
37206;BME280;23099;42.636;23.198;2023-07-16T12:36:22;92308.19;;;33.48;40.36
37206;BME280;23099;42.636;23.198;2023-07-16T12:38:49;92308.44;;;33.39;39.61
37206;BME280;23099;42.636;23.198;2023-07-16T12:41:16;92296.06;;;33.29;40.21
37206;BME280;23099;42.636;23.198;2023-07-16T12:43:42;92298.22;;;33.19;40.27
37206;BME280;23099;42.636;23.198;2023-07-16T12:46:09;92310.59;;;33.18;41.31